Latest Weather Observations for Tocal

IDN60801

Issued at 8:02 pm EST Saturday 30 May 2015 (issued every 30 minutes, with the page automatically refreshed every 10 minutes)

About weather observations | Map of weather stations | Latest weather observations for NSW | Other Formats
Station Details ID: 061250 Name: TOCAL AWS Lat: -32.63 Lon: 151.59 Height: 30.0 m
Data from the previous 72 hours. | See also: Recent months at Tocal
Date/Time
EST
Temp
°C
App
Temp
°C
Dew
Point
Rel
Hum
%
Delta-T
°C
Wind Press
QNH
hPa
Press
MSL
hPa
Rain
since 9 am
mm
Dir
 
Spd
km/h
Gust
km/h
Spd
kts
Gust
kts
30/08:00pm 15.4 14.8 11.7 78 2.0 N 6 7 3 4 - - 0.0
30/07:30pm 15.7 16.3 12.0 78 2.0 CALM 0 0 0 0 - - 0.0
30/07:00pm 16.5 17.0 11.5 72 2.7 CALM 0 0 0 0 - - 0.0
30/06:30pm 16.2 17.0 12.6 79 2.0 CALM 0 0 0 0 - - 0.0
30/06:00pm 16.7 17.4 12.1 74 2.5 CALM 0 0 0 0 - - 0.0
30/05:30pm 17.2 17.9 12.3 73 2.7 CALM 0 0 0 0 - - 0.0
30/05:00pm 17.6 18.4 12.4 71 2.9 CALM 0 0 0 0 - - 0.0
30/04:30pm 18.2 18.7 11.6 65 3.6 CALM 0 0 0 0 - - 0.0
30/04:00pm 18.9 18.6 11.6 62 4.0 N 4 6 2 3 - - 0.0
30/03:30pm 18.9 17.8 10.8 59 4.4 NNW 7 9 4 5 - - 0.0
30/03:00pm 19.3 17.6 9.9 54 5.0 WNW 9 11 5 6 - - 0.0
30/02:30pm 19.5 17.7 9.5 52 5.3 WNW 9 15 5 8 - - 0.0
30/02:00pm 19.8 17.2 9.2 50 5.6 WNW 13 17 7 9 - - 0.0
30/01:30pm 19.9 17.6 9.1 49 5.7 WNW 11 17 6 9 - - 0.0
30/01:00pm 19.8 18.4 11.0 57 4.8 WNW 9 13 5 7 - - 0.0
30/12:30pm 19.7 18.0 9.8 52 5.3 WNW 9 13 5 7 - - 0.0
30/12:00pm 20.1 17.8 10.3 53 5.3 W 13 22 7 12 - - 0.0
30/11:30am 19.4 18.8 12.4 64 3.9 NNE 7 9 4 5 - - 0.0
30/11:00am 18.5 18.1 13.0 70 3.1 NE 7 11 4 6 - - 0.0
30/10:30am 17.7 17.5 12.9 73 2.7 ENE 6 9 3 5 - - 0.0
30/10:00am 16.5 15.8 13.3 81 1.8 NE 9 13 5 7 - - 0.0
30/09:30am 15.6 14.9 13.1 85 1.4 ENE 9 11 5 6 - - 0.0
30/09:00am 14.4 14.1 12.8 90 0.9 NE 6 6 3 3 - - 0.2
30/08:30am 12.9 13.6 12.3 96 0.3 CALM 0 0 0 0 - - 0.2
30/08:00am 11.6 12.0 11.4 99 0.1 CALM 0 0 0 0 - - 0.2
30/07:30am 10.4 10.5 10.2 99 0.1 CALM 0 0 0 0 - - 0.2
30/07:00am 9.9 9.9 9.9 100 0.0 CALM 0 0 0 0 - - 0.2
30/06:30am 11.1 11.4 10.9 99 0.1 CALM 0 0 0 0 - - 0.2
30/06:00am 11.0 11.3 10.8 99 0.1 CALM 0 0 0 0 - - 0.2
30/05:30am 11.2 10.8 11.2 100 0.0 SW 4 6 2 3 - - 0.2
30/05:00am 11.5 11.9 11.1 97 0.2 CALM 0 0 0 0 - - 0.2
30/04:30am 11.8 12.2 11.4 97 0.2 CALM 0 0 0 0 - - 0.2
30/04:00am 12.0 12.6 11.8 99 0.1 CALM 0 0 0 0 - - 0.2
30/03:30am 11.6 12.0 11.4 99 0.1 CALM 0 0 0 0 - - 0.2
30/03:00am 11.4 11.8 11.2 99 0.1 CALM 0 6 0 3 - - 0.2
30/02:30am 12.5 13.1 11.9 96 0.3 CALM 0 0 0 0 - - 0.2
30/02:00am 12.6 13.3 12.2 97 0.2 CALM 0 0 0 0 - - 0.2
30/01:30am 12.5 13.2 12.1 97 0.2 CALM 0 0 0 0 - - 0.2
30/01:00am 12.5 13.2 12.1 97 0.2 CALM 0 0 0 0 - - 0.2
30/12:30am 12.4 13.0 12.0 97 0.2 CALM 0 0 0 0 - - 0.2
30/12:00am 11.9 12.4 11.7 99 0.1 CALM 0 0 0 0 - - 0.2
 
Date/Time
EST
Temp
°C
App
Temp
°C
Dew
Point
Rel
Hum
%
Delta-T
°C
Wind Press
QNH
hPa
Press
MSL
hPa
Rain
since 9 am
mm
Dir
 
Spd
km/h
Gust
km/h
Spd
kts
Gust
kts
29/11:30pm 12.5 13.2 12.1 97 0.2 CALM 0 0 0 0 - - 0.2
29/11:00pm 12.6 13.2 12.0 96 0.3 CALM 0 0 0 0 - - 0.2
29/10:30pm 13.2 13.6 12.5 95 0.4 SW 2 6 1 3 - - 0.2
29/10:00pm 13.3 13.7 12.6 95 0.4 WNW 2 7 1 4 - - 0.2
29/09:30pm 13.4 14.2 12.7 95 0.4 CALM 0 0 0 0 - - 0.2
29/09:00pm 13.6 14.3 12.3 92 0.7 CALM 0 0 0 0 - - 0.2
29/08:30pm 15.4 16.3 12.9 85 1.4 CALM 0 0 0 0 - - 0.2
29/08:00pm 15.7 16.6 13.0 84 1.5 CALM 0 0 0 0 - - 0.2
29/07:30pm 16.7 17.6 12.9 78 2.1 CALM 0 0 0 0 - - 0.2
29/07:00pm 16.9 17.8 13.0 78 2.2 CALM 0 0 0 0 - - 0.2
29/06:30pm 17.5 17.1 12.5 72 2.8 N 6 7 3 4 - - 0.2
29/06:00pm 17.7 17.3 12.5 71 2.9 E 6 7 3 4 - - 0.2
29/05:30pm 17.6 17.7 12.8 73 2.7 N 4 7 2 4 - - 0.2
29/05:00pm 17.5 17.4 13.4 77 2.3 N 6 7 3 4 - - 0.2
29/04:30pm 18.2 17.8 12.9 71 3.0 NNW 7 7 4 4 - - 0.2
29/04:00pm 18.6 17.9 13.1 70 3.1 NNW 9 13 5 7 - - 0.2
29/03:30pm 19.3 17.9 13.5 69 3.3 NNW 13 19 7 10 - - 0.2
29/03:00pm 19.5 17.5 12.8 65 3.8 NW 15 19 8 10 - - 0.2
29/02:30pm 19.4 17.4 12.8 65 3.7 NW 15 24 8 13 - - 0.2
29/02:00pm 19.2 17.4 13.4 69 3.3 NW 15 26 8 14 - - 0.2
29/01:30pm 18.7 17.8 13.6 72 2.9 NW 11 17 6 9 - - 0.2
29/01:00pm 18.4 17.3 14.2 76 2.4 NW 13 19 7 10 - - 0.2
29/12:30pm 18.2 17.0 14.0 76 2.4 NNW 13 17 7 9 - - 0.0
29/12:00pm 18.3 16.6 13.5 73 2.7 NW 15 20 8 11 - - 0.0
29/11:30am 18.5 17.6 13.6 73 2.8 WNW 11 19 6 10 - - 0.0
29/11:00am 18.4 17.0 13.5 73 2.8 WNW 13 20 7 11 - - 0.0
29/10:30am 18.9 16.7 13.3 70 3.2 NNW 17 24 9 13 - - 0.0
29/10:00am 18.5 16.3 13.2 71 3.0 NW 17 28 9 15 - - 0.0
29/09:30am 18.2 16.6 12.7 70 3.1 WNW 13 20 7 11 - - 0.0
29/09:00am 16.0 14.7 13.7 86 1.3 NW 13 28 7 15 - - 0.2
29/08:30am 14.8 14.6 13.5 92 0.7 NE 7 11 4 6 - - 0.2
29/08:00am 13.6 14.5 12.9 95 0.4 CALM 0 0 0 0 - - 0.2
29/07:30am 13.5 13.0 12.6 94 0.5 ESE 7 9 4 5 - - 0.2
29/07:00am 14.1 12.7 12.3 89 1.0 S 11 15 6 8 - - 0.2
29/06:30am 13.3 12.7 12.2 93 0.6 SE 7 9 4 5 - - 0.0
29/06:00am 13.1 13.7 12.0 93 0.6 CALM 0 0 0 0 - - 0.0
29/05:30am 12.8 12.6 11.9 94 0.5 E 4 7 2 4 - - 0.0
29/05:00am 12.3 12.1 11.9 97 0.2 WSW 4 7 2 4 - - 0.0
29/04:30am 12.0 12.5 11.6 97 0.2 CALM 0 0 0 0 - - 0.0
29/04:00am 12.5 12.7 11.7 95 0.4 WSW 2 7 1 4 - - 0.0
29/03:30am 12.2 12.6 11.4 95 0.4 CALM 0 7 0 4 - - 0.0
29/03:00am 13.1 13.7 11.8 92 0.7 CALM 0 0 0 0 - - 0.0
29/02:30am 12.9 13.5 12.0 94 0.5 CALM 0 6 0 3 - - 0.0
29/02:00am 13.2 13.1 12.1 93 0.6 E 4 7 2 4 - - 0.0
29/01:30am 12.7 13.3 12.0 95 0.4 CALM 0 0 0 0 - - 0.0
29/01:00am 12.2 12.3 11.4 95 0.4 WNW 2 7 1 4 - - 0.0
29/12:30am 14.0 13.9 12.2 89 1.0 NE 4 9 2 5 - - 0.0
29/12:00am 13.1 13.7 12.0 93 0.6 CALM 0 7 0 4 - - 0.0
 
Date/Time
EST
Temp
°C
App
Temp
°C
Dew
Point
Rel
Hum
%
Delta-T
°C
Wind Press
QNH
hPa
Press
MSL
hPa
Rain
since 9 am
mm
Dir
 
Spd
km/h
Gust
km/h
Spd
kts
Gust
kts
28/11:30pm 12.8 12.3 11.9 94 0.5 W 6 7 3 4 - - 0.0
28/11:00pm 12.6 13.2 11.9 95 0.4 CALM 0 0 0 0 - - 0.0
28/10:30pm 13.1 13.7 11.8 92 0.7 CALM 0 0 0 0 - - 0.0
28/10:00pm 13.4 14.1 12.1 92 0.7 CALM 0 0 0 0 - - 0.0
28/09:30pm 13.2 13.0 11.9 92 0.7 W 4 6 2 3 - - 0.0
28/09:00pm 13.5 14.1 12.0 91 0.8 CALM 0 7 0 4 - - 0.0
28/08:30pm 13.5 14.1 12.0 91 0.8 CALM 0 0 0 0 - - 0.0
28/08:00pm 13.4 14.1 12.1 92 0.7 CALM 0 0 0 0 - - 0.0
28/07:30pm 14.1 14.8 12.3 89 1.0 CALM 0 0 0 0 - - 0.0
28/07:00pm 15.3 14.8 12.8 85 1.4 WSW 7 9 4 5 - - 0.0
28/06:30pm 15.4 16.3 12.9 85 1.4 CALM 0 0 0 0 - - 0.0
28/06:00pm 15.8 16.0 12.9 83 1.6 WNW 4 7 2 4 - - 0.0
28/05:30pm 17.4 18.3 12.9 75 2.5 CALM 0 0 0 0 - - 0.0
28/05:00pm 18.2 17.6 12.3 68 3.3 WNW 7 9 4 5 - - 0.0
28/04:30pm 19.7 18.7 12.2 62 4.2 W 9 11 5 6 - - 0.0
28/04:00pm 20.4 18.8 11.6 57 4.9 WNW 11 15 6 8 - - 0.0
28/03:30pm 20.8 18.4 11.4 55 5.2 W 15 20 8 11 - - 0.0
28/03:00pm 20.7 18.6 11.3 55 5.2 W 13 17 7 9 - - 0.0
28/02:30pm 21.1 18.8 10.5 50 5.8 WNW 13 20 7 11 - - 0.0
28/02:00pm 22.4 20.5 10.6 47 6.5 WNW 11 15 6 8 - - 0.0
28/01:30pm 21.8 20.3 10.5 48 6.2 WNW 9 13 5 7 - - 0.0
28/01:00pm 22.2 19.5 10.3 46 6.5 WNW 15 22 8 12 - - 0.0
28/12:30pm 21.2 19.9 11.3 53 5.5 NNE 9 13 5 7 - - 0.0
28/12:00pm 20.2 18.8 10.9 55 5.1 NE 9 11 5 6 - - 0.0
28/11:30am 19.4 - 10.5 56 4.8 - - - - - - - 0.0
28/11:00am 18.9 - 11.2 61 4.2 - - - - - - - 0.0
28/10:30am 18.0 16.9 10.5 61 4.0 NE 7 9 4 5 - - 0.0
28/10:00am 16.4 15.1 9.9 65 3.4 ENE 7 11 4 6 - - 0.0
28/09:30am 14.8 13.8 10.2 74 2.4 NNE 6 7 3 4 - - 0.0
28/09:00am 14.3 13.8 10.7 79 1.9 N 4 7 2 4 - - 0.0
28/08:30am 12.0 11.7 10.2 89 0.9 NE 2 7 1 4 - - 0.0
28/08:00am 10.4 10.3 9.6 95 0.4 CALM 0 0 0 0 - - 0.0
28/07:30am 9.7 9.6 9.3 97 0.2 CALM 0 0 0 0 - - 0.0
28/07:00am 8.7 8.4 8.7 100 0.0 CALM 0 0 0 0 - - 0.0
28/06:30am 9.0 8.8 9.0 100 0.0 CALM 0 0 0 0 - - 0.0
28/06:00am 9.3 8.7 9.1 99 0.1 NW 2 7 1 4 - - 0.0
28/05:30am 10.0 9.9 9.6 97 0.2 CALM 0 0 0 0 - - 0.0
28/05:00am 10.1 10.1 9.7 97 0.2 CALM 0 0 0 0 - - 0.0
28/04:30am 10.3 9.9 9.7 96 0.3 WNW 2 7 1 4 - - 0.0
28/04:00am 11.1 11.1 9.7 91 0.7 CALM 0 0 0 0 - - 0.0
28/03:30am 11.2 11.1 9.6 90 0.8 CALM 0 9 0 5 - - 0.0
28/03:00am 10.9 10.9 9.9 93 0.5 CALM 0 0 0 0 - - 0.0
28/02:30am 11.7 11.7 9.9 89 0.9 CALM 0 0 0 0 - - 0.0
28/02:00am 10.9 11.0 10.1 95 0.4 CALM 0 0 0 0 - - 0.0
28/01:30am 11.3 11.4 10.1 92 0.6 CALM 0 0 0 0 - - 0.0
28/01:00am 11.5 11.5 9.9 90 0.8 CALM 0 0 0 0 - - 0.0
28/12:30am 11.4 11.1 10.2 92 0.6 WNW 2 7 1 4 - - 0.0
28/12:00am 11.9 11.9 9.9 87 1.0 CALM 0 0 0 0 - - 0.0
 
Date/Time
EST
Temp
°C
App
Temp
°C
Dew
Point
Rel
Hum
%
Delta-T
°C
Wind Press
QNH
hPa
Press
MSL
hPa
Rain
since 9 am
mm
Dir
 
Spd
km/h
Gust
km/h
Spd
kts
Gust
kts
27/11:30pm 12.2 12.3 10.1 87 1.1 CALM 0 0 0 0 - - 0.0
27/11:00pm 12.4 12.5 10.1 86 1.2 CALM 0 0 0 0 - - 0.0
27/10:30pm 12.5 12.7 10.6 88 1.0 CALM 0 0 0 0 - - 0.0
27/10:00pm 13.0 13.1 10.1 82 1.5 CALM 0 0 0 0 - - 0.0
27/09:30pm 12.8 12.6 10.3 85 1.3 W 2 6 1 3 - - 0.0
27/09:00pm 12.9 12.4 10.8 87 1.1 WNW 4 7 2 4 - - 0.0
27/08:30pm 14.0 14.2 10.4 79 1.9 CALM 0 0 0 0 - - 0.0

Other Formats:

Comma delimited format used in spreadsheet applications
http://www.bom.gov.au/fwo/IDN60801/IDN60801.94775.axf

JavaScript Object Notation format (JSON) in row-major order
http://www.bom.gov.au/fwo/IDN60801/IDN60801.94775.json